• Join FlightAware (Why Join?)
  • Login
  • US Flag 
08:34PM EDT


 

Airport Tracker/Info


-or-


 

Live Flight TrackerFlight Track Log ✈ BJS542 ✈ 12-Aug-2013 ✈ KBHB - KHPN

Flight Track Log - Related Links

Times and Time Zones

All times are in EDT time to prevent confusion due to time zone crossing. See the BJS542 flight status page for this flight to view local times or setup timezone preferences in your user account.

Time Position Orientation Groundspeed Altitude Reporting Facility
EDT Latitude Longitude Course Direction KTS MPH feet Rate Location/Type
03:15PM 44.3808 -68.4806 252° West 219 252 7,000  Level Boston Center
03:16PM 44.3533 -68.5897 251° West 248 285 10,000 1,980 Climbing Boston Center
03:17PM 44.3214 -68.7022 248° West 288 331 11,100 2,280 Climbing Boston Center
03:18PM 44.2878 -68.8203 248° West 313 360 14,600 3,660 Climbing Boston Center
03:19PM 44.2519 -68.9472 249° West 330 380 18,400 3,780 Climbing Boston Center
03:20PM 44.2407 -69.0683 252° West  Level FlightAware Approximate
03:20PM 44.2161 -69.0681 248° West 343 395 22,400  Level Boston Center
03:22PM 44.1439 -69.3153 248° West 433 498 28,500 2,820 Climbing Boston Center
03:23PM 44.1078 -69.4472 249° West 394 453 31,000 2,460 Climbing Boston Center
03:24PM 44.0694 -69.5792 248° West 377 434 33,500 2,280 Climbing Boston Center
03:25PM 44.0386 -69.6847 248° West 377 434 35,500 1,860 Climbing Boston Center
03:26PM 43.9944 -69.8456 249° West 377 434 37,600 1,080 Climbing Boston Center
03:27PM 43.9458 -70.0064 247° West 377 434 38,000 180 Climbing Boston Center
03:28PM 43.9150 -70.1286 251° West 377 434 38,000  Level Boston Center
03:29PM 43.8697 -70.2600 244° Southwest 377 434 38,000  Level Boston Center
03:30PM 43.8306 -70.3939 248° West 377 434 38,000  Level Boston Center
03:31PM 43.7911 -70.5275 248° West 377 434 38,000  Level Boston Center
03:32PM 43.7517 -70.6608 248° West 377 434 38,000  Level Boston Center
03:33PM 43.7119 -70.7914 247° West 377 434 38,000  Level Boston Center
03:34PM 43.6700 -70.9244 246° West 377 434 38,000  Level Boston Center
03:35PM 43.6361 -71.0544 250° West 377 434 38,000  Level Boston Center
03:36PM 43.5900 -71.2017 247° West 377 434 38,000  Level Boston Center
03:37PM 43.5456 -71.3372 246° West 384 442 38,000  Level Boston Center
03:38PM 43.5050 -71.4725 248° West 384 442 38,000  Level Boston Center
03:39PM 43.4622 -71.6078 246° West 384 442 38,000  Level Boston Center
03:40PM 43.4214 -71.7397 247° West 384 442 38,000  Level Boston Center
03:41PM 43.3786 -71.8775 247° West 384 442 38,000  Level Boston Center
03:42PM 43.3394 -72.0092 248° West 384 442 38,000 -480 Level Boston Center
03:43PM 43.2961 -72.1406 246° West 384 442 37,100 -1,500 Descending Boston Center
03:44PM 43.2547 -72.2747 247° West 384 442 35,100 -2,160 Descending Boston Center
03:45PM 43.2172 -72.4058 249° West 379 436 32,900 -2,520 Descending Boston Center
03:46PM 43.2194 -72.5511 271° West 367 422 30,000 -2,580 Descending Boston Center
03:47PM 43.2233 -72.6964 272° West 379 436 27,700 -1,860 Descending Boston Center
03:48PM 43.2311 -72.8392 274° West 379 436 26,400 -1,440 Descending Boston Center
03:49PM 43.2347 -72.9872 272° West 385 443 24,900 -1,200 Descending Boston Center
03:50PM 43.1861 -73.1122 242° Southwest 363 418 24,000 -840 Descending Boston Center
03:51PM 43.1125 -73.2278 229° Southwest 385 443 23,300 -1,080 Descending Boston Center
03:52PM 43.0389 -73.3378 228° Southwest 395 455 21,900 -1,620 Descending Boston Center
03:53PM 42.9669 -73.4472 228° Southwest 395 455 20,200 -1,560 Descending Boston Center
03:54PM 42.9014 -73.5539 230° Southwest 395 455 18,800 -1,380 Descending Boston Center
03:55PM 42.8150 -73.6372 215° Southwest 378 435 17,500 -1,500 Descending Boston Center
03:56PM 42.6981 -73.6606 188° South 378 435 15,600 -1,620 Descending Boston Center
03:57PM 42.5833 -73.6808 187° South 389 448 14,000 -1,500 Descending Boston Center
03:58PM 42.4956 -73.6989 189° South 375 432 12,600 -1,020 Descending Boston Center
03:59PM 42.3933 -73.7164 187° South 351 404 12,000 -360 Descending Boston Center
04:00PM 42.3033 -73.7314 187° South 357 411 11,900  Descending Boston Center
04:01PM 42.1947 -73.7489 187° South 357 411 12,000  Climbing Boston Center
04:02PM 42.1072 -73.7667 189° South 357 411 12,000 -60 Level Boston Center
04:03PM 42.0006 -73.7839 187° South 352 405 11,900  Descending Boston Center
04:04PM 41.9297 -73.7964 187° South 321 369 12,000 -60 Climbing Boston Center
04:05PM 41.8419 -73.8111 187° South 296 341 11,800 -540 Descending Boston Center
04:06PM 41.7747 -73.8431 200° South 283 326 11,000 -1,380 Descending Boston Center
04:07PM 41.7133 -73.9167 222° Southwest 269 310 9,200 -1,800 Descending Boston Center
04:08PM 41.6486 -73.9264 186° South 257 296 7,400 -1,620 Descending Boston Center
04:09PM 41.5633 -73.9161 175° South 274 315 6,000 -840 Descending Boston Center
04:11PM 41.4167 -73.9000 175° South 272 313 5,200 -960 Descending New York TRACON
04:12PM 41.3500 -73.8833 169° South 268 308 3,300 -1,080 Descending New York TRACON
04:13PM 41.2833 -73.8667 169° South 264 304 3,100 -600 Descending New York TRACON
04:14PM 41.2167 -73.8167 151° Southeast 233 268 2,200 -540 Descending New York TRACON
04:15PM 41.1667 -73.7833 153° Southeast 167 192 2,100 -240 Descending New York TRACON
04:16PM 41.1333 -73.7667 159° South 156 180 1,800 -540 Descending New York TRACON
04:17PM 41.1000 -73.7333 143° Southeast 133 153 1,100 -720 Descending New York TRACON
04:19PM 41.0669 -73.7076 252° West  Level Estimated
04:26PM 41.0667 -73.7000 252° West  Level FlightAware Approximate